Owls Head, ME

8:22 PM EST on February 27, 2017 (GMT -0500)
Knox County Regional

Weather History for KRKD - September, 2011

Change the Weather History Date:

Tuesday, September 6, 2011

  Actual Average Record
Temperature  
Mean Temperature 64 °F -  
Max Temperature 68 °F 67 °F 80 °F (1996)
Min Temperature 60 °F 51 °F 35 °F (2000)
Degree Days  
Heating Degree Days 1    
Growing Degree Days 14 (Base 50)    
Moisture  
Dew Point 56 °F    
Average Humidity 75    
Maximum Humidity 88    
Minimum Humidity 60    
Precipitation  
Precipitation 0.00 in - - ()
Sea Level Pressure  
Sea Level Pressure 29.97 in    
Wind  
Wind Speed 6 mph (North)    
Max Wind Speed 10 mph    
Max Gust Speed -    
Visibility 10 miles    
Events      
Averages and records for this station are not official NWS values.
T = Trace of Precipitation, MM = Missing Value Source: NWS Daily Summary

Daily Weather History Graph

Daily Weather History Graph

Search for Another Location

Airport or City:

Trip Planner

Search our weather history database for the weather conditions in past years. The results will help you decide how hot, cold, wet, or windy it might be!

Date:

Astronomy

Sep. 06, 2011 Rise Set
Actual Time 6:04 AM EDT 7:03 PM EDT
Civil Twilight 5:35 AM EDT 7:33 PM EDT
Nautical Twilight 5:00 AM EDT 8:08 PM EDT
Astronomical Twilight 4:23 AM EDT 8:45 PM EDT
Moon 3:45 PM EDT (9/6) 12:06 AM EDT (9/6)
Length of Visible Light 13h 57m
Length of Day
12h 59m
Waxing Gibbous, 70% of the Moon is Illuminated
Sep 6
Waxing Gibbous
Sep 12
Full
Sep 20
Last Quarter
Sep 27
New
Oct 3
First Quarter

Hourly Weather History & Observations

Time (EDT) Temp. Dew Point Humidity Pressure Visibility Wind Dir Wind Speed Gust Speed Precip Events Conditions
12:15 AM 64.4 °F 59.0 °F 83% 29.84 in 10.0 mi West 10.4 mph - N/A   Overcast
12:35 AM 64.4 °F 59.0 °F 83% 29.84 in 10.0 mi NW 4.6 mph - N/A   Overcast
12:55 AM 64.4 °F 59.0 °F 83% 29.85 in 10.0 mi WNW 8.1 mph - N/A   Mostly Cloudy
1:15 AM 62.6 °F 57.2 °F 82% 29.84 in 10.0 mi NNW 4.6 mph - N/A   Overcast
1:35 AM 62.6 °F 57.2 °F 82% 29.85 in 10.0 mi West 10.4 mph - N/A   Mostly Cloudy
1:55 AM 62.6 °F 57.2 °F 82% 29.83 in 10.0 mi NW 6.9 mph - N/A   Overcast
2:15 AM 62.6 °F 57.2 °F 82% 29.84 in 10.0 mi NNW 4.6 mph - N/A   Overcast
2:35 AM 62.6 °F 55.4 °F 77% 29.84 in 10.0 mi NNW 4.6 mph - N/A   Mostly Cloudy
2:55 AM 62.6 °F 55.4 °F 77% 29.84 in 10.0 mi NNW 5.8 mph - N/A   Overcast
3:15 AM 62.6 °F 55.4 °F 77% 29.84 in 10.0 mi NW 3.5 mph - N/A   Overcast
3:35 AM 62.6 °F 55.4 °F 77% 29.84 in 10.0 mi NW 5.8 mph - N/A   Overcast
3:55 AM 62.6 °F 55.4 °F 77% 29.85 in 10.0 mi WNW 6.9 mph - N/A   Overcast
4:15 AM 62.6 °F 55.4 °F 77% 29.85 in 10.0 mi NNW 3.5 mph - N/A   Overcast
4:35 AM 62.6 °F 55.4 °F 77% 29.86 in 10.0 mi NNW 5.8 mph - N/A   Overcast
4:55 AM 62.6 °F 55.4 °F 77% 29.87 in 10.0 mi NNW 4.6 mph - N/A   Overcast
5:15 AM 62.6 °F 55.4 °F 77% 29.87 in 10.0 mi North 4.6 mph - N/A   Overcast
5:35 AM 62.6 °F 55.4 °F 77% 29.86 in 10.0 mi NNW 6.9 mph - N/A   Overcast
5:55 AM 62.6 °F 55.4 °F 77% 29.89 in 10.0 mi NNW 3.5 mph - N/A   Overcast
6:15 AM 62.6 °F 55.4 °F 77% 29.90 in 10.0 mi NNW 5.8 mph - N/A   Overcast
6:35 AM 60.8 °F 53.6 °F 77% 29.91 in 10.0 mi NNW 5.8 mph - N/A   Overcast
6:55 AM 60.8 °F 53.6 °F 77% 29.92 in 10.0 mi North 5.8 mph - N/A   Overcast
7:15 AM 60.8 °F 53.6 °F 77% 29.92 in 10.0 mi North 6.9 mph - N/A   Overcast
7:35 AM 60.8 °F 53.6 °F 77% 29.93 in 10.0 mi North 6.9 mph - N/A   Overcast
10:35 AM 60.8 °F - N/A% 29.97 in - North 4.6 mph - N/A   Unknown
10:55 AM 60.8 °F 57.2 °F 88% 29.98 in 10.0 mi North 4.6 mph - N/A   Overcast
11:15 AM 62.6 °F 57.2 °F 82% 29.98 in 10.0 mi NNE 5.8 mph - N/A   Overcast
11:35 AM 62.6 °F 57.2 °F 82% 30.00 in 10.0 mi NNE 6.9 mph - N/A   Overcast
12:15 PM 64.4 °F 55.4 °F 73% 30.01 in 10.0 mi North 6.9 mph - N/A   Overcast
12:35 PM 64.4 °F 55.4 °F 73% 30.02 in 10.0 mi North 9.2 mph - N/A   Overcast
12:55 PM 64.4 °F 55.4 °F 73% 30.03 in 10.0 mi North 5.8 mph - N/A   Overcast
1:15 PM 66.2 °F 55.4 °F 68% 30.03 in 10.0 mi NNW 5.8 mph - N/A   Overcast
1:35 PM 66.2 °F 55.4 °F 68% 30.04 in 10.0 mi NNE 6.9 mph - N/A   Overcast
1:55 PM 66.2 °F 55.4 °F 68% 30.04 in 10.0 mi North 4.6 mph - N/A   Overcast
2:15 PM 66.2 °F 55.4 °F 68% 30.05 in 10.0 mi NNE 5.8 mph - N/A   Mostly Cloudy
2:35 PM 66.2 °F 53.6 °F 64% 30.05 in 10.0 mi North 4.6 mph - N/A   Mostly Cloudy
2:55 PM 68.0 °F 55.4 °F 64% 30.05 in 10.0 mi NNE 4.6 mph - N/A   Mostly Cloudy
3:15 PM 68.0 °F 53.6 °F 60% 30.06 in 10.0 mi North 8.1 mph - N/A   Scattered Clouds
3:35 PM 68.0 °F 53.6 °F 60% 30.06 in 10.0 mi NE 3.5 mph - N/A   Clear
3:55 PM 68.0 °F 55.4 °F 64% 30.07 in 10.0 mi NE 5.8 mph - N/A   Clear
4:15 PM 68.0 °F 55.4 °F 64% 30.07 in 10.0 mi NE 5.8 mph - N/A   Clear
4:35 PM 66.2 °F 55.4 °F 68% 30.08 in 10.0 mi NNE 4.6 mph - N/A   Clear
4:55 PM 68.0 °F 55.4 °F 64% 30.09 in 10.0 mi Calm Calm - N/A   Clear
5:15 PM 66.2 °F 55.4 °F 68% 30.10 in 10.0 mi Calm Calm - N/A   Clear
5:35 PM 66.2 °F 55.4 °F 68% 30.10 in 10.0 mi ESE 4.6 mph - N/A   Clear
5:55 PM 66.2 °F 55.4 °F 68% 30.11 in 10.0 mi Calm Calm - N/A   Clear
6:15 PM 66.2 °F 57.2 °F 73% 30.12 in 10.0 mi Calm Calm - N/A   Clear
6:35 PM 64.4 °F 57.2 °F 77% 30.12 in 10.0 mi Calm Calm - N/A   Clear
6:55 PM 62.6 °F 57.2 °F 82% 30.13 in 10.0 mi Calm Calm - N/A   Clear
7:15 PM 62.6 °F 55.4 °F 77% 30.14 in 10.0 mi Calm Calm - N/A   Clear
7:35 PM 62.6 °F 57.2 °F 82% 30.15 in 10.0 mi Calm Calm - N/A   Clear
8:15 PM 60.8 °F 57.2 °F 88% 30.17 in 10.0 mi Calm Calm - N/A   Clear
8:35 PM 60.8 °F 57.2 °F 88% 30.19 in 10.0 mi West 3.5 mph - N/A   Clear
8:55 PM 60.8 °F 57.2 °F 88% 30.19 in 10.0 mi Calm Calm - N/A   Clear
9:15 PM 60.8 °F 57.2 °F 88% 30.19 in 10.0 mi Calm Calm - N/A   Clear
9:35 PM 60.8 °F 57.2 °F 88% 30.19 in 10.0 mi Calm Calm - N/A   Clear
9:55 PM 60.8 °F 57.2 °F 88% 30.20 in 10.0 mi Calm Calm - N/A   Clear
10:15 PM 60.8 °F 57.2 °F 88% 30.21 in 10.0 mi Calm Calm - N/A   Clear
10:35 PM 60.8 °F 57.2 °F 88% 30.22 in 10.0 mi Calm Calm - N/A   Clear
10:55 PM 60.8 °F 57.2 °F 88% 30.22 in 10.0 mi Calm Calm - N/A   Clear
11:15 PM 59.0 °F 57.2 °F 94% 30.22 in 10.0 mi Calm Calm - N/A   Clear
11:55 PM 59.0 °F 57.2 °F 94% 30.24 in 10.0 mi WNW 3.5 mph - N/A   Clear